createdAt,value
2022-09-02T00:01:25.085Z,10.80
2022-09-02T00:03:58.654Z,10.80
2022-09-02T00:06:27.899Z,10.70
2022-09-02T00:08:55.911Z,10.70
2022-09-02T00:11:27.380Z,10.60
2022-09-02T00:13:57.124Z,10.60
2022-09-02T00:16:25.961Z,10.60
2022-09-02T00:18:56.425Z,10.50
2022-09-02T00:21:24.607Z,10.50
2022-09-02T00:23:52.893Z,10.50
2022-09-02T00:26:21.367Z,10.40
2022-09-02T00:28:55.941Z,10.40
2022-09-02T00:31:25.798Z,10.40
2022-09-02T00:33:55.528Z,10.30
2022-09-02T00:36:23.589Z,10.30
2022-09-02T00:38:51.661Z,10.30
2022-09-02T00:41:22.588Z,10.20
2022-09-02T00:43:52.920Z,10.20
2022-09-02T00:46:24.889Z,10.10
2022-09-02T00:48:59.727Z,10.10
2022-09-02T00:51:31.576Z,10.00
2022-09-02T00:54:01.015Z,10.00
2022-09-02T00:56:32.379Z,10.00
2022-09-02T00:59:01.902Z,9.90
2022-09-02T01:01:29.900Z,9.80
2022-09-02T01:04:00.040Z,9.80
2022-09-02T01:06:33.102Z,9.80
2022-09-02T01:09:09.424Z,9.70
2022-09-02T01:11:41.628Z,9.60
2022-09-02T01:14:12.473Z,9.60
2022-09-02T01:16:44.938Z,9.60
2022-09-02T01:19:21.846Z,9.60
2022-09-02T01:21:52.784Z,9.50
2022-09-02T01:24:22.242Z,9.50
2022-09-02T01:26:54.827Z,9.40
2022-09-02T01:29:22.982Z,9.40
2022-09-02T01:31:51.400Z,9.30
2022-09-02T01:34:19.569Z,9.30
2022-09-02T01:36:47.738Z,9.30
2022-09-02T01:39:17.324Z,9.20
2022-09-02T01:41:45.371Z,9.20
2022-09-02T01:44:16.197Z,9.20
2022-09-02T01:46:44.461Z,9.10
2022-09-02T01:49:12.848Z,9.10
2022-09-02T01:51:41.897Z,9.00
2022-09-02T01:54:10.001Z,9.00
2022-09-02T01:56:39.880Z,9.00
2022-09-02T01:59:08.379Z,9.00
2022-09-02T02:01:36.951Z,8.90
2022-09-02T02:04:07.510Z,8.90
2022-09-02T02:06:40.378Z,8.80
2022-09-02T02:09:08.553Z,8.90
2022-09-02T02:11:36.696Z,8.80
2022-09-02T02:14:06.480Z,8.80
2022-09-02T02:16:34.561Z,8.80
2022-09-02T02:19:02.655Z,8.70
2022-09-02T02:21:30.746Z,8.70
2022-09-02T02:24:00.382Z,8.70
2022-09-02T02:26:28.457Z,8.70
2022-09-02T02:28:56.673Z,8.60
2022-09-02T02:31:26.154Z,8.60
2022-09-02T02:33:54.268Z,8.60
2022-09-02T02:36:22.680Z,8.60
2022-09-02T02:38:50.771Z,8.70
2022-09-02T02:43:48.113Z,8.50
2022-09-02T02:46:17.891Z,8.40
2022-09-02T02:48:47.374Z,8.40
2022-09-02T02:51:15.675Z,8.40
2022-09-02T02:53:43.922Z,8.30
2022-09-02T02:56:12.039Z,8.30
2022-09-02T02:58:40.088Z,8.20
2022-09-02T03:01:08.103Z,8.20
2022-09-02T03:03:36.163Z,8.20
2022-09-02T03:06:05.709Z,8.20
2022-09-02T03:08:35.242Z,8.10
2022-09-02T03:11:04.014Z,8.10
2022-09-02T03:13:33.274Z,8.10
2022-09-02T03:16:01.551Z,8.10
2022-09-02T03:18:29.634Z,8.10
2022-09-02T03:20:57.667Z,8.10
2022-09-02T03:23:27.072Z,8.00
2022-09-02T03:25:55.335Z,8.10
2022-09-02T03:28:23.336Z,8.00
2022-09-02T03:30:51.418Z,8.00
2022-09-02T03:33:19.986Z,8.00
2022-09-02T03:35:48.036Z,8.00
2022-09-02T03:38:16.035Z,7.90
2022-09-02T03:40:45.470Z,7.90
2022-09-02T03:43:13.667Z,7.90
2022-09-02T03:48:12.366Z,7.80
2022-09-02T03:50:43.270Z,7.80
2022-09-02T03:53:19.742Z,7.80
2022-09-02T03:55:50.792Z,7.80
2022-09-02T03:58:19.817Z,7.70
2022-09-02T04:00:52.666Z,7.70
2022-09-02T04:03:21.499Z,7.70
2022-09-02T04:05:50.717Z,7.70
2022-09-02T04:08:19.285Z,7.60
2022-09-02T04:10:48.988Z,7.60
2022-09-02T04:13:17.326Z,7.50
2022-09-02T04:15:48.268Z,7.50
2022-09-02T04:18:17.634Z,7.50
2022-09-02T04:20:46.152Z,7.40
2022-09-02T04:23:14.233Z,7.40
2022-09-02T04:25:42.907Z,7.40
2022-09-02T04:28:13.057Z,7.40
2022-09-02T04:30:41.900Z,7.30
2022-09-02T04:33:10.136Z,7.30
2022-09-02T04:35:41.139Z,7.30
2022-09-02T04:38:09.825Z,7.30
2022-09-02T04:40:42.362Z,7.30
2022-09-02T04:43:12.142Z,7.30
2022-09-02T04:45:41.975Z,7.30
2022-09-02T04:48:09.982Z,7.30
2022-09-02T04:50:39.432Z,7.30
2022-09-02T04:53:07.960Z,7.30
2022-09-02T04:55:36.356Z,7.30
2022-09-02T04:58:04.405Z,7.30
2022-09-02T05:00:34.085Z,7.30
2022-09-02T05:03:02.398Z,7.40
2022-09-02T05:05:30.635Z,7.40
2022-09-02T05:07:58.741Z,7.50
2022-09-02T05:10:26.755Z,7.60
2022-09-02T05:12:55.168Z,7.60
2022-09-02T05:15:23.213Z,7.60
2022-09-02T05:17:52.755Z,7.70
2022-09-02T05:20:20.622Z,7.70
2022-09-02T05:22:49.981Z,7.80
2022-09-02T05:25:18.558Z,7.90
2022-09-02T05:27:46.624Z,7.90
2022-09-02T05:30:14.927Z,8.00
2022-09-02T05:32:42.975Z,8.10
2022-09-02T05:35:12.351Z,8.10
2022-09-02T05:37:40.437Z,8.20
2022-09-02T05:40:14.932Z,8.20
2022-09-02T05:42:43.508Z,8.30
2022-09-02T05:45:12.775Z,8.40
2022-09-02T05:47:44.565Z,8.60
2022-09-02T05:50:14.973Z,8.60
2022-09-02T05:52:43.052Z,8.70
2022-09-02T05:55:11.499Z,8.80
2022-09-02T05:57:39.507Z,8.90
2022-09-02T06:00:10.268Z,9.00
2022-09-02T06:02:38.218Z,9.10
2022-09-02T06:05:07.159Z,9.20
2022-09-02T06:07:37.723Z,9.40
2022-09-02T06:10:07.472Z,9.50
2022-09-02T06:12:39.494Z,9.60
2022-09-02T06:15:14.759Z,9.80
2022-09-02T06:17:42.774Z,9.90
2022-09-02T06:20:11.886Z,10.10
2022-09-02T06:22:41.415Z,10.20
2022-09-02T06:25:09.747Z,10.40
2022-09-02T06:27:39.940Z,10.50
2022-09-02T06:30:09.213Z,10.70
2022-09-02T06:32:37.352Z,10.90
2022-09-02T06:35:08.658Z,11.00
2022-09-02T06:37:36.741Z,11.20
2022-09-02T06:40:07.772Z,11.30
2022-09-02T06:42:35.878Z,11.50
2022-09-02T06:45:04.759Z,11.60
2022-09-02T06:47:32.777Z,11.80
2022-09-02T06:50:01.247Z,11.90
2022-09-02T06:52:29.276Z,12.10
2022-09-02T06:54:57.302Z,12.20
2022-09-02T06:57:31.500Z,12.40
2022-09-02T07:00:03.567Z,12.60
2022-09-02T07:02:31.605Z,12.70
2022-09-02T07:05:11.015Z,12.90
2022-09-02T07:07:44.314Z,13.10
2022-09-02T07:10:14.501Z,13.20
2022-09-02T07:12:44.165Z,13.40
2022-09-02T07:15:13.018Z,13.60
2022-09-02T07:17:41.149Z,13.80
2022-09-02T07:20:09.556Z,14.00
2022-09-02T07:22:38.997Z,14.20
2022-09-02T07:25:07.676Z,14.40
2022-09-02T07:27:35.893Z,14.60
2022-09-02T07:30:06.703Z,14.70
2022-09-02T07:32:35.088Z,14.80
2022-09-02T07:35:04.444Z,15.00
2022-09-02T07:37:32.471Z,15.20
2022-09-02T07:40:00.524Z,15.40
2022-09-02T07:42:28.599Z,15.50
2022-09-02T07:44:57.864Z,15.70
2022-09-02T07:47:27.245Z,15.90
2022-09-02T07:52:43.136Z,16.20
2022-09-02T07:55:14.868Z,16.40
2022-09-02T07:57:43.330Z,16.60
2022-09-02T08:00:13.776Z,16.70
2022-09-02T08:02:43.544Z,16.90
2022-09-02T08:05:12.532Z,17.10
2022-09-02T08:07:40.599Z,17.20
2022-09-02T08:10:12.958Z,17.40
2022-09-02T08:12:42.147Z,17.60
2022-09-02T08:15:12.149Z,17.80
2022-09-02T08:17:43.173Z,17.90
2022-09-02T08:20:13.104Z,18.10
2022-09-02T08:22:41.860Z,18.20
2022-09-02T08:25:12.667Z,18.40
2022-09-02T08:27:43.272Z,18.50
2022-09-02T08:30:12.792Z,18.60
2022-09-02T08:32:42.855Z,18.80
2022-09-02T08:35:12.037Z,19.10
2022-09-02T08:37:40.355Z,19.40
2022-09-02T08:40:14.313Z,19.70
2022-09-02T08:42:49.647Z,19.40
2022-09-02T08:45:24.304Z,19.50
2022-09-02T08:48:02.540Z,19.20
2022-09-02T08:50:32.596Z,19.50
2022-09-02T08:53:08.999Z,19.30
2022-09-02T08:55:44.320Z,19.30
2022-09-02T08:58:18.094Z,19.60
2022-09-02T09:00:51.218Z,19.80
2022-09-02T09:03:28.781Z,20.20
2022-09-02T09:06:07.333Z,20.60
2022-09-02T09:08:45.142Z,20.90
2022-09-02T09:11:21.989Z,21.10
2022-09-02T09:14:11.137Z,21.20
2022-09-02T09:16:49.574Z,21.20
2022-09-02T09:19:29.919Z,21.20
2022-09-02T09:22:03.200Z,21.30
2022-09-02T09:24:36.787Z,21.30
2022-09-02T09:27:09.867Z,21.40
2022-09-02T09:29:38.043Z,21.30
2022-09-02T09:32:12.670Z,21.10
2022-09-02T09:35:03.141Z,20.90
2022-09-02T09:37:36.926Z,21.10
2022-09-02T09:40:30.564Z,21.00
2022-09-02T09:43:22.765Z,21.30
2022-09-02T09:45:51.460Z,21.40
2022-09-02T09:48:28.369Z,21.90
2022-09-02T09:51:14.453Z,22.50
2022-09-02T09:53:42.769Z,22.80
2022-09-02T09:56:37.660Z,23.10
2022-09-02T09:59:10.036Z,23.20
2022-09-02T10:01:38.527Z,23.40
2022-09-02T10:04:32.373Z,23.50
2022-09-02T10:07:00.279Z,23.70
2022-09-02T10:09:34.436Z,23.20
2022-09-02T10:12:05.079Z,22.70
2022-09-02T10:14:38.328Z,23.00
2022-09-02T10:17:32.508Z,22.70
2022-09-02T10:20:08.876Z,22.50
2022-09-02T10:23:15.775Z,22.20
2022-09-02T10:26:00.271Z,22.30
2022-09-02T10:28:42.586Z,22.40
2022-09-02T10:31:20.646Z,22.10
2022-09-02T10:34:01.159Z,22.40
2022-09-02T10:36:37.451Z,23.00
2022-09-02T10:39:18.728Z,23.40
2022-09-02T10:41:52.050Z,23.60
2022-09-02T10:44:33.906Z,23.60
2022-09-02T10:47:04.757Z,23.90
2022-09-02T10:50:02.952Z,23.70
2022-09-02T10:52:50.856Z,24.10
2022-09-02T10:55:26.697Z,23.60
2022-09-02T10:58:04.456Z,23.30
2022-09-02T11:00:36.322Z,22.90
2022-09-02T11:03:13.851Z,22.50
2022-09-02T11:05:48.347Z,23.00
2022-09-02T11:08:27.295Z,23.30
2022-09-02T11:11:05.015Z,23.70
2022-09-02T11:13:40.163Z,23.30
2022-09-02T11:16:15.337Z,22.70
2022-09-02T11:18:50.996Z,22.30
2022-09-02T11:21:32.707Z,22.00
2022-09-02T11:24:06.237Z,21.80
2022-09-02T11:26:40.415Z,22.40
2022-09-02T11:29:15.531Z,22.70
2022-09-02T11:31:47.778Z,22.40
2022-09-02T11:34:27.164Z,22.30
2022-09-02T11:36:55.231Z,22.70
2022-09-02T11:39:51.496Z,23.50
2022-09-02T11:42:33.334Z,24.30
2022-09-02T11:45:24.453Z,24.40
2022-09-02T11:48:25.575Z,23.80
2022-09-02T11:53:49.961Z,24.10
2022-09-02T11:56:26.563Z,25.00
2022-09-02T11:58:54.704Z,25.10
2022-09-02T12:01:31.575Z,24.70
2022-09-02T12:07:26.751Z,24.00
2022-09-02T12:09:58.976Z,23.60
2022-09-02T12:13:04.095Z,23.40
2022-09-02T12:15:36.587Z,23.20
2022-09-02T12:18:13.809Z,23.00
2022-09-02T12:21:23.394Z,22.90
2022-09-02T12:24:25.084Z,22.80
2022-09-02T12:27:10.700Z,22.80
2022-09-02T12:29:39.790Z,22.80
2022-09-02T12:32:09.685Z,23.90
2022-09-02T12:35:08.281Z,24.10
2022-09-02T12:37:57.639Z,23.50
2022-09-02T12:40:35.186Z,22.90
2022-09-02T12:43:15.632Z,22.40
2022-09-02T12:45:45.323Z,22.10
2022-09-02T12:48:18.040Z,21.80
2022-09-02T12:51:02.054Z,21.80
2022-09-02T12:53:36.311Z,21.80
2022-09-02T12:56:09.504Z,21.90
2022-09-02T12:58:46.499Z,21.90
2022-09-02T13:01:20.449Z,21.80
2022-09-02T13:04:12.835Z,21.90
2022-09-02T13:07:21.421Z,22.10
2022-09-02T13:10:18.271Z,22.90
2022-09-02T13:13:10.929Z,22.80
2022-09-02T13:16:01.460Z,22.70
2022-09-02T13:18:58.152Z,22.40
2022-09-02T13:21:47.546Z,22.10
2022-09-02T13:24:52.641Z,22.30
2022-09-02T13:27:48.299Z,22.60
2022-09-02T13:30:21.943Z,22.40
2022-09-02T13:32:58.203Z,22.30
2022-09-02T13:35:28.965Z,22.40
2022-09-02T13:38:00.242Z,22.60
2022-09-02T13:40:33.493Z,22.40
2022-09-02T13:43:03.016Z,22.10
2022-09-02T13:45:34.208Z,21.90
2022-09-02T13:48:08.085Z,21.70
2022-09-02T13:50:38.259Z,21.60
2022-09-02T13:56:00.245Z,21.70
2022-09-02T13:58:36.312Z,23.00
2022-09-02T14:01:21.024Z,24.00
2022-09-02T14:03:51.510Z,24.80
2022-09-02T14:06:23.487Z,24.30
2022-09-02T14:08:54.870Z,23.80
2022-09-02T14:11:24.671Z,23.50
2022-09-02T14:13:53.487Z,23.40
2022-09-02T14:16:29.591Z,23.10
2022-09-02T14:19:08.375Z,22.80
2022-09-02T14:21:45.780Z,22.60
2022-09-02T14:24:15.888Z,22.40
2022-09-02T14:26:47.637Z,22.10
2022-09-02T14:29:17.995Z,21.90
2022-09-02T14:31:46.810Z,22.20
2022-09-02T14:34:35.155Z,22.40
2022-09-02T14:37:19.207Z,23.10
2022-09-02T14:40:08.700Z,23.50
2022-09-02T14:42:48.509Z,23.20
2022-09-02T14:45:27.610Z,22.80
2022-09-02T14:47:57.921Z,22.50
2022-09-02T14:50:30.563Z,22.20
2022-09-02T14:53:04.746Z,22.00
2022-09-02T14:55:53.187Z,21.80
2022-09-02T14:58:26.802Z,21.60
2022-09-02T15:00:57.579Z,21.50
2022-09-02T15:03:26.349Z,21.40
2022-09-02T15:05:54.388Z,21.50
2022-09-02T15:08:23.351Z,21.50
2022-09-02T15:10:52.475Z,21.50
2022-09-02T15:13:29.584Z,21.60
2022-09-02T15:15:59.339Z,21.70
2022-09-02T15:18:27.430Z,21.70
2022-09-02T15:20:55.476Z,21.70
2022-09-02T15:23:24.122Z,21.80
2022-09-02T15:25:54.456Z,21.70
2022-09-02T15:28:23.896Z,21.50
2022-09-02T15:30:58.603Z,21.40
2022-09-02T15:33:27.361Z,21.30
2022-09-02T15:35:55.725Z,21.20
2022-09-02T15:38:23.820Z,21.00
2022-09-02T15:40:51.903Z,20.90
2022-09-02T15:43:21.307Z,20.90
2022-09-02T15:45:50.798Z,20.90
2022-09-02T15:48:18.861Z,20.80
2022-09-02T15:50:46.895Z,20.70
2022-09-02T15:53:16.380Z,20.60
2022-09-02T15:55:44.465Z,20.60
2022-09-02T15:58:12.493Z,20.40
2022-09-02T16:00:41.307Z,20.20
2022-09-02T16:03:13.265Z,20.10
2022-09-02T16:05:43.117Z,20.00
2022-09-02T16:08:11.508Z,19.90
2022-09-02T16:10:40.302Z,19.80
2022-09-02T16:13:08.369Z,19.70
2022-09-02T16:15:36.404Z,19.60
2022-09-02T16:18:04.447Z,19.50
2022-09-02T16:20:33.891Z,19.50
2022-09-02T16:23:01.828Z,19.30
2022-09-02T16:25:29.868Z,19.20
2022-09-02T16:27:57.905Z,19.20
2022-09-02T16:30:26.499Z,19.10
2022-09-02T16:32:54.668Z,19.00
2022-09-02T16:35:22.717Z,18.90
2022-09-02T16:37:53.680Z,18.80
2022-09-02T16:40:22.153Z,18.70
2022-09-02T16:42:50.416Z,18.60
2022-09-02T16:45:19.506Z,18.60
2022-09-02T16:47:47.766Z,18.40
2022-09-02T16:50:15.916Z,18.30
2022-09-02T16:52:44.154Z,18.30
2022-09-02T16:55:17.791Z,18.20
2022-09-02T16:57:45.828Z,18.10
2022-09-02T17:00:15.312Z,18.00
2022-09-02T17:02:45.112Z,18.00
2022-09-02T17:05:14.394Z,17.90
2022-09-02T17:07:42.528Z,17.80
2022-09-02T17:10:11.346Z,17.70
2022-09-02T17:12:43.006Z,17.60
2022-09-02T17:15:11.699Z,17.50
2022-09-02T17:17:40.071Z,17.40
2022-09-02T17:20:08.900Z,17.30
2022-09-02T17:22:37.078Z,17.20
2022-09-02T17:25:05.438Z,17.10
2022-09-02T17:27:36.196Z,17.00
2022-09-02T17:30:06.412Z,16.90
2022-09-02T17:32:34.807Z,16.80
2022-09-02T17:35:03.113Z,16.70
2022-09-02T17:37:31.477Z,16.50
2022-09-02T17:39:59.718Z,16.40
2022-09-02T17:42:26.839Z,16.30
2022-09-02T17:44:54.896Z,16.20
2022-09-02T17:47:24.956Z,16.00
2022-09-02T17:49:53.347Z,15.90
2022-09-02T17:52:23.365Z,15.80
2022-09-02T17:54:52.888Z,15.60
2022-09-02T17:57:42.759Z,15.50
2022-09-02T18:00:12.500Z,15.40
2022-09-02T18:03:12.443Z,15.30
2022-09-02T18:05:52.823Z,15.20
2022-09-02T18:08:32.096Z,15.10
2022-09-02T18:11:05.077Z,14.90
2022-09-02T18:13:41.840Z,14.80
2022-09-02T18:16:32.013Z,14.70
2022-09-02T18:19:13.110Z,14.50
2022-09-02T18:21:59.305Z,14.40
2022-09-02T18:24:41.038Z,14.30
2022-09-02T18:27:17.611Z,14.20
2022-09-02T18:29:56.925Z,14.10
2022-09-02T18:32:37.586Z,14.10
2022-09-02T18:35:21.657Z,14.00
2022-09-02T18:38:01.756Z,13.80
2022-09-02T18:40:42.402Z,13.70
2022-09-02T18:43:19.574Z,13.70
2022-09-02T18:45:50.194Z,13.60
2022-09-02T18:48:22.194Z,13.50
2022-09-02T18:50:54.533Z,13.40
2022-09-02T18:53:25.441Z,13.40
2022-09-02T18:55:55.936Z,13.30
2022-09-02T18:58:35.057Z,13.20
2022-09-02T19:01:07.578Z,13.20
2022-09-02T19:03:38.116Z,13.20
2022-09-02T19:06:13.108Z,13.10
2022-09-02T19:08:41.240Z,13.00
2022-09-02T19:11:12.732Z,12.90
2022-09-02T19:13:46.903Z,12.80
2022-09-02T19:16:18.201Z,12.80
2022-09-02T19:18:46.351Z,12.80
2022-09-02T19:21:19.361Z,12.70
2022-09-02T19:23:49.084Z,12.70
2022-09-02T19:26:17.946Z,12.70
2022-09-02T19:28:48.296Z,12.70
2022-09-02T19:31:21.568Z,12.70
2022-09-02T19:33:53.153Z,12.70
2022-09-02T19:36:26.273Z,12.70
2022-09-02T19:38:56.519Z,12.60
2022-09-02T19:41:27.589Z,12.60
2022-09-02T19:43:55.894Z,12.50
2022-09-02T19:49:12.524Z,12.40
2022-09-02T19:51:44.277Z,12.40
2022-09-02T19:54:14.740Z,12.40
2022-09-02T19:56:42.981Z,12.30
2022-09-02T19:59:11.040Z,12.30
2022-09-02T20:01:39.310Z,12.30
2022-09-02T20:04:07.528Z,12.20
2022-09-02T20:06:35.911Z,12.20
2022-09-02T20:09:05.893Z,12.10
2022-09-02T20:11:34.852Z,12.10
2022-09-02T20:14:05.242Z,11.90
2022-09-02T20:16:34.248Z,11.90
2022-09-02T20:19:02.603Z,11.80
2022-09-02T20:21:32.542Z,11.70
2022-09-02T20:24:04.519Z,11.60
2022-09-02T20:26:46.419Z,11.50
2022-09-02T20:29:32.335Z,11.40
2022-09-02T20:32:12.265Z,11.40
2022-09-02T20:34:57.125Z,11.30
2022-09-02T20:37:35.903Z,11.20
2022-09-02T20:40:23.583Z,11.20
2022-09-02T20:43:20.223Z,11.10
2022-09-02T20:45:56.401Z,11.00
2022-09-02T20:48:41.450Z,11.00
2022-09-02T20:51:13.043Z,10.90
2022-09-02T20:54:03.316Z,10.90
2022-09-02T20:56:41.269Z,10.80
2022-09-02T20:59:18.313Z,10.80
2022-09-02T21:01:48.319Z,10.70
2022-09-02T21:04:29.326Z,10.70
2022-09-02T21:07:03.394Z,10.70
2022-09-02T21:09:40.628Z,10.70
2022-09-02T21:12:19.515Z,10.70
2022-09-02T21:14:53.420Z,10.60
2022-09-02T21:17:29.013Z,10.60
2022-09-02T21:20:07.780Z,10.50
2022-09-02T21:22:39.679Z,10.50
2022-09-02T21:25:12.355Z,10.50
2022-09-02T21:27:48.389Z,10.40
2022-09-02T21:30:21.922Z,10.30
2022-09-02T21:32:52.637Z,10.30
2022-09-02T21:35:24.210Z,10.20
2022-09-02T21:37:59.109Z,10.20
2022-09-02T21:40:39.628Z,10.10
2022-09-02T21:43:22.919Z,10.10
2022-09-02T21:46:00.859Z,10.00
2022-09-02T21:48:33.851Z,10.00
2022-09-02T21:51:05.565Z,9.90
2022-09-02T21:53:49.653Z,9.90
2022-09-02T21:56:32.256Z,9.80
2022-09-02T21:59:29.484Z,9.70
2022-09-02T22:02:05.485Z,9.60
2022-09-02T22:04:52.774Z,9.60
2022-09-02T22:07:28.398Z,9.50
2022-09-02T22:10:08.885Z,9.50
2022-09-02T22:12:39.600Z,9.40
2022-09-02T22:15:13.393Z,9.40
2022-09-02T22:17:49.133Z,9.30
2022-09-02T22:20:21.697Z,9.30
2022-09-02T22:22:54.295Z,9.20
2022-09-02T22:25:23.179Z,9.20
2022-09-02T22:27:55.087Z,9.20
2022-09-02T22:30:23.391Z,9.10
2022-09-02T22:33:02.588Z,9.10
2022-09-02T22:35:36.772Z,9.10
2022-09-02T22:38:10.632Z,9.10
2022-09-02T22:40:43.332Z,9.00
2022-09-02T22:43:14.777Z,9.00
2022-09-02T22:46:07.103Z,9.00
2022-09-02T22:48:57.942Z,9.00
2022-09-02T22:51:51.412Z,9.00
2022-09-02T22:54:19.461Z,9.00
2022-09-02T22:56:59.730Z,8.90
2022-09-02T22:59:38.994Z,8.90
2022-09-02T23:02:19.455Z,8.80
2022-09-02T23:05:04.832Z,8.80
2022-09-02T23:07:33.272Z,8.80
2022-09-02T23:10:01.956Z,8.70
2022-09-02T23:12:39.071Z,8.70
2022-09-02T23:15:22.664Z,8.60
2022-09-02T23:17:57.309Z,8.60
2022-09-02T23:20:32.784Z,8.60
2022-09-02T23:23:15.795Z,8.60
2022-09-02T23:26:03.808Z,8.50
2022-09-02T23:28:39.047Z,8.50
2022-09-02T23:31:17.823Z,8.50
2022-09-02T23:33:54.459Z,8.40
2022-09-02T23:36:35.066Z,8.40
2022-09-02T23:39:22.150Z,8.40
2022-09-02T23:41:50.252Z,8.40
2022-09-02T23:44:18.288Z,8.30
2022-09-02T23:46:55.498Z,8.30
2022-09-02T23:49:34.120Z,8.20
2022-09-02T23:52:11.082Z,8.20
2022-09-02T23:54:51.951Z,8.20
2022-09-02T23:57:35.866Z,8.20
